CheckWX is a tool to help pilots better visualize weather data.  It is not intended as a substitute for an official pre-flight weather briefing.

07:45:40 UTC

LGSA METAR
Chania International Airport
Souda, Greece
Current

26 mins ago

LGSA 260720Z 00000KT CAVOK 12/09 Q1026
Observed
Jan-26 @ 07:20 UTC
Visibility
10,000+ meters
Flight Rules
VFR
Cloud Levels
  • Clear skies
Temperature
12°C / 54°F
Dewpoint
C / 48°F
Humidity
82%
Altimeter
30.3" Hg
Pressure
1025.92 hPa
Previous

56 mins ago

LGSA 260650Z 00000KT CAVOK 11/08 Q1026
Observed
Jan-26 @ 06:50 UTC
Visibility
10,000+ meters
Flight Rules
VFR
Cloud Levels
  • Clear skies
Temperature
11°C / 52°F
Dewpoint
C / 46°F
Humidity
82%
Altimeter
30.3" Hg
Pressure
1025.92 hPa
Previous

1 hour ago

LGSA 260620Z 00000KT CAVOK 09/07 Q1026
Observed
Jan-26 @ 06:20 UTC
Visibility
10,000+ meters
Flight Rules
VFR
Cloud Levels
  • Clear skies
Temperature
C / 48°F
Dewpoint
C / 45°F
Humidity
87%
Altimeter
30.3" Hg
Pressure
1025.92 hPa